Currently 59°F in Riverside (Orangecrest), California, USA
59°F
76°F / 52°F
calm
0.00"
Saturday, January 25, 2020 8:49 PM PST

Riverside (Orangecrest), California Weather Summary
Last 36 Hours

Temperature Winds Hourly Humidity Dewpoint
Time Report Norm Report Norm Max Gusts Precip. Rpt. Norm Rpt. Norm Pressure
1Sat 08:49 PM  59.4°F  57°F  calm  3 mph  none  0.00"  60%  40%  45°F  32°F  30.15"
Sat 08:00 PM  59.5°F  58°F  calm  3 mph  4 mph  0.00"  60%  39%  45°F  32°F  30.12"
Sat 07:00 PM  61.0°F  59°F  calm  3 mph  7 mph  0.00"  56%  37%  45°F  32°F  30.11"
Sat 06:00 PM  62.4°F  60°F  3 mph SW  4 mph  10 mph  0.00"  52%  34%  44°F  31°F  30.09"
Sat 05:00 PM  65.9°F  63°F  5 mph SW  4 mph  11 mph  0.00"  44%  30%  42°F  30°F  30.07"
Sat 04:00 PM  71.3°F  65°F  4 mph SW  5 mph  8 mph  0.00"  27%  27%  34°F  29°F  30.06"
Sat 03:00 PM  72.4°F  66°F  calm  5 mph  9 mph  0.00"  26%  25%  34°F  28°F  30.06"
2Sat 02:09 PM  75.7°F  66°F  calm  4 mph  5 mph  ----  16%  25%  25°F  28°F  30.06"
Sat 02:00 PM  75.1°F  66°F  calm  4 mph  9 mph  0.00"  16%  25%  24°F  28°F  30.06"
Sat 01:00 PM  73.0°F  65°F  1 mph SW  5 mph  7 mph  0.00"  18%  27%  25°F  28°F  30.07"
Sat 12:00 PM  69.9°F  64°F  1 mph SW  5 mph  8 mph  0.00"  29%  28%  35°F  28°F  30.09"
Sat 11:00 AM  66.5°F  62°F  4 mph SW  4 mph  7 mph  0.00"  34%  31%  36°F  30°F  30.11"
Sat 10:00 AM  64.0°F  59°F  calm  5 mph  4 mph  0.00"  39%  36%  38°F  31°F  30.13"
Sat 09:00 AM  54.8°F  56°F  2 mph SW  3 mph  9 mph  0.00"  56%  42%  39°F  32°F  30.11"
Sat 08:00 AM  51.7°F  53°F  2 mph SW  4 mph  5 mph  0.00"  62%  46%  39°F  32°F  30.09"
Sat 07:00 AM  54.3°F  53°F  2 mph SW  3 mph  6 mph  0.00"  52%  44%  36°F  31°F  30.08"
Sat 06:00 AM  54.2°F  53°F  4 mph SW  3 mph  3 mph  0.00"  53%  45%  37°F  31°F  30.06"
Sat 05:00 AM  55.1°F  53°F  2 mph SW  3 mph  4 mph  0.00"  50%  45%  36°F  32°F  30.06"
Sat 04:00 AM  52.6°F  53°F  3 mph SW  3 mph  5 mph  0.00"  60%  45%  39°F  31°F  30.05"
Sat 03:00 AM  53.1°F  53°F  3 mph SW  3 mph  6 mph  0.00"  60%  46%  39°F  32°F  30.05"
Sat 02:00 AM  56.3°F  54°F  4 mph SW  3 mph  6 mph  0.00"  55%  45%  40°F  32°F  30.06"
3Sat 01:19 AM  51.6°F  54°F  4 mph SW  2 mph  6 mph  ----  68%  45%  41°F  32°F  30.06"
Sat 01:00 AM  52.3°F  54°F  calm  2 mph  5 mph  0.00"  66%  45%  41°F  32°F  30.06"
Sat 12:00 AM  54.3°F  55°F  calm  2 mph  3 mph  0.00"  65%  43%  42°F  32°F  30.06"
Fri 11:00 PM  55.6°F  55°F  calm  2 mph  4 mph  0.00"  63%  41%  43°F  31°F  30.06"
Fri 10:00 PM  56.4°F  56°F  3 mph SW  3 mph  4 mph  0.00"  62%  40%  43°F  31°F  30.06"
Fri 09:00 PM  58.7°F  57°F  calm  3 mph  4 mph  0.00"  57%  40%  43°F  31°F  30.06"
Fri 08:00 PM  59.1°F  58°F  calm  4 mph  7 mph  0.00"  54%  38%  42°F  31°F  30.05"
Fri 07:00 PM  61.2°F  59°F  3 mph SW  3 mph  8 mph  0.00"  50%  37%  42°F  31°F  30.03"
Fri 06:00 PM  63.2°F  60°F  4 mph SW  4 mph  10 mph  0.00"  45%  34%  41°F  31°F  30.01"
Fri 05:00 PM  65.8°F  62°F  5 mph SW  4 mph  10 mph  0.00"  38%  31%  39°F  30°F  30.00"
Fri 04:00 PM  69.5°F  65°F  3 mph SW  5 mph  9 mph  0.00"  30%  28%  35°F  29°F  29.99"
Fri 03:00 PM  71.1°F  65°F  2 mph SW  5 mph  9 mph  0.00"  26%  26%  34°F  28°F  30.00"
Fri 02:00 PM  71.2°F  65°F  4 mph SW  5 mph  8 mph  0.00"  22%  26%  29°F  28°F  30.01"
Fri 01:00 PM  71.1°F  65°F  3 mph SW  6 mph  9 mph  0.00"  22%  27%  29°F  28°F  30.02"
Fri 12:00 PM  70.7°F  63°F  2 mph SW  5 mph  5 mph  0.00"  19%  28%  24°F  28°F  30.05"
Fri 11:00 AM  68.5°F  62°F  1 mph SW  5 mph  4 mph  0.00"  25%  32%  29°F  30°F  30.08"
Fri 10:00 AM  60.6°F  59°F  calm  5 mph  9 mph  0.00"  43%  36%  37°F  31°F  30.09"
Fri 09:00 AM  54.5°F  56°F  2 mph SW  4 mph  5 mph  0.00"  51%  41%  36°F  32°F  30.09"

  1. Current weather data. No green row appears if the current weather data is also the high or low for the current day.
  2. High temperature for the current day.
  3. Low temperature for the current day.

The Riverside (Orangecrest), California weather pages are a service of WeatherCurrents.
Copyright ©2020  WeatherCurrents. All rights reserved. - Submit questions and comments - Privacy Policy

This page automatically refreshes every 10 minutes.